sensor_id;sensor_type;location;lat;lon;timestamp;pressure;altitude;pressure_sealevel;temperature;humidity
77702;BME280;66868;42.708;23.404;2023-03-02T00:01:28;95511.50;;;7.06;84.65
77702;BME280;66868;42.708;23.404;2023-03-02T00:03:56;95510.09;;;6.99;84.31
77702;BME280;66868;42.708;23.404;2023-03-02T00:06:25;95502.78;;;6.93;84.38
77702;BME280;66868;42.708;23.404;2023-03-02T00:08:51;95491.13;;;6.91;84.93
77702;BME280;66868;42.708;23.404;2023-03-02T00:11:17;95501.06;;;6.94;84.36
77702;BME280;66868;42.708;23.404;2023-03-02T00:13:43;95498.63;;;6.92;84.51
77702;BME280;66868;42.708;23.404;2023-03-02T00:16:08;95494.47;;;6.91;84.51
77702;BME280;66868;42.708;23.404;2023-03-02T00:18:34;95498.03;;;6.86;84.92
77702;BME280;66868;42.708;23.404;2023-03-02T00:20:59;95427.47;;;6.45;84.39
77702;BME280;66868;42.708;23.404;2023-03-02T00:23:24;95488.97;;;6.82;84.48
77702;BME280;66868;42.708;23.404;2023-03-02T00:25:50;95479.75;;;6.81;84.47
77702;BME280;66868;42.708;23.404;2023-03-02T00:28:15;95469.34;;;6.68;84.34
77702;BME280;66868;42.708;23.404;2023-03-02T00:30:40;95429.47;;;6.37;84.55
77702;BME280;66868;42.708;23.404;2023-03-02T00:33:06;95464.78;;;6.56;85.68
77702;BME280;66868;42.708;23.404;2023-03-02T00:35:37;95484.44;;;6.68;85.72
77702;BME280;66868;42.708;23.404;2023-03-02T00:38:02;95477.84;;;6.65;84.85
77702;BME280;66868;42.708;23.404;2023-03-02T00:40:28;95471.06;;;6.68;85.48
77702;BME280;66868;42.708;23.404;2023-03-02T00:42:53;95465.16;;;6.69;85.54
77702;BME280;66868;42.708;23.404;2023-03-02T00:45:18;95453.56;;;6.64;85.46
77702;BME280;66868;42.708;23.404;2023-03-02T00:47:44;95469.41;;;6.66;86.01
77702;BME280;66868;42.708;23.404;2023-03-02T00:50:09;95459.50;;;6.62;86.08
77702;BME280;66868;42.708;23.404;2023-03-02T00:52:35;95453.78;;;6.58;85.66
77702;BME280;66868;42.708;23.404;2023-03-02T00:55:00;95458.06;;;6.56;85.89
77702;BME280;66868;42.708;23.404;2023-03-02T00:57:26;95445.59;;;6.53;85.77
77702;BME280;66868;42.708;23.404;2023-03-02T00:59:51;95455.56;;;6.56;85.72
77702;BME280;66868;42.708;23.404;2023-03-02T01:02:16;95440.81;;;6.47;86.07
77702;BME280;66868;42.708;23.404;2023-03-02T01:04:43;95440.38;;;6.58;86.43
77702;BME280;66868;42.708;23.404;2023-03-02T01:07:14;95438.81;;;6.55;86.21
77702;BME280;66868;42.708;23.404;2023-03-02T01:09:41;95419.28;;;6.40;86.13
77702;BME280;66868;42.708;23.404;2023-03-02T01:12:07;95438.91;;;6.52;86.44
77702;BME280;66868;42.708;23.404;2023-03-02T01:14:35;95430.63;;;6.50;86.84
77702;BME280;66868;42.708;23.404;2023-03-02T01:17:02;95440.00;;;6.47;86.61
77702;BME280;66868;42.708;23.404;2023-03-02T01:20:02;95434.22;;;6.43;87.31
77702;BME280;66868;42.708;23.404;2023-03-02T01:22:35;95425.72;;;6.47;87.11
77702;BME280;66868;42.708;23.404;2023-03-02T01:25:04;95425.72;;;6.47;86.66
77702;BME280;66868;42.708;23.404;2023-03-02T01:27:30;95424.94;;;6.45;87.46
77702;BME280;66868;42.708;23.404;2023-03-02T01:29:58;95420.78;;;6.44;86.97
77702;BME280;66868;42.708;23.404;2023-03-02T01:32:23;95411.06;;;6.35;87.22
77702;BME280;66868;42.708;23.404;2023-03-02T01:34:52;95409.44;;;6.34;87.19
77702;BME280;66868;42.708;23.404;2023-03-02T01:37:18;95431.53;;;6.48;87.54
77702;BME280;66868;42.708;23.404;2023-03-02T01:39:55;95378.56;;;6.09;87.78
77702;BME280;66868;42.708;23.404;2023-03-02T01:42:21;95427.50;;;6.22;88.12
77702;BME280;66868;42.708;23.404;2023-03-02T01:44:51;95419.84;;;6.25;87.74
77702;BME280;66868;42.708;23.404;2023-03-02T01:47:39;95421.47;;;6.26;88.06
77702;BME280;66868;42.708;23.404;2023-03-02T01:50:18;95414.63;;;6.30;87.44
77702;BME280;66868;42.708;23.404;2023-03-02T01:52:45;95406.91;;;6.34;87.46
77702;BME280;66868;42.708;23.404;2023-03-02T01:55:14;95408.56;;;6.35;87.50
77702;BME280;66868;42.708;23.404;2023-03-02T01:57:44;95412.59;;;6.39;88.02
77702;BME280;66868;42.708;23.404;2023-03-02T02:00:17;95417.41;;;6.45;87.55
77702;BME280;66868;42.708;23.404;2023-03-02T02:02:43;95399.22;;;6.39;87.49
77702;BME280;66868;42.708;23.404;2023-03-02T02:05:16;95414.03;;;6.46;86.77
77702;BME280;66868;42.708;23.404;2023-03-02T02:07:43;95412.38;;;6.45;86.65
77702;BME280;66868;42.708;23.404;2023-03-02T02:10:09;95413.78;;;6.52;87.22
77702;BME280;66868;42.708;23.404;2023-03-02T02:12:35;95401.31;;;6.49;86.90
77702;BME280;66868;42.708;23.404;2023-03-02T02:15:01;95409.69;;;6.50;86.12
77702;BME280;66868;42.708;23.404;2023-03-02T02:17:30;95408.91;;;6.48;86.08
77702;BME280;66868;42.708;23.404;2023-03-02T02:20:28;95419.75;;;6.50;86.68
77702;BME280;66868;42.708;23.404;2023-03-02T02:26:03;95414.25;;;6.40;86.93
77702;BME280;66868;42.708;23.404;2023-03-02T02:31:11;95415.75;;;6.44;86.56
77702;BME280;66868;42.708;23.404;2023-03-02T02:33:40;95410.00;;;6.42;86.10
77702;BME280;66868;42.708;23.404;2023-03-02T02:36:23;95399.03;;;6.43;86.26
77702;BME280;66868;42.708;23.404;2023-03-02T02:38:52;95399.59;;;6.51;86.33
77702;BME280;66868;42.708;23.404;2023-03-02T02:41:28;95391.66;;;6.39;86.25
77702;BME280;66868;42.708;23.404;2023-03-02T02:43:55;95406.22;;;6.52;85.83
77702;BME280;66868;42.708;23.404;2023-03-02T02:46:22;95413.06;;;6.49;86.26
77702;BME280;66868;42.708;23.404;2023-03-02T02:48:47;95411.38;;;6.49;85.45
77702;BME280;66868;42.708;23.404;2023-03-02T02:51:22;95416.41;;;6.49;85.77
77702;BME280;66868;42.708;23.404;2023-03-02T02:54:01;95401.31;;;6.49;85.61
77702;BME280;66868;42.708;23.404;2023-03-02T02:56:31;95401.44;;;6.46;85.31
77702;BME280;66868;42.708;23.404;2023-03-02T02:59:03;95370.97;;;6.32;84.95
77702;BME280;66868;42.708;23.404;2023-03-02T03:01:32;95399.03;;;6.43;85.10
77702;BME280;66868;42.708;23.404;2023-03-02T03:04:01;95381.69;;;6.37;85.85
77702;BME280;66868;42.708;23.404;2023-03-02T03:06:30;95393.78;;;6.49;85.02
77702;BME280;66868;42.708;23.404;2023-03-02T03:09:04;95392.97;;;6.49;85.29
77702;BME280;66868;42.708;23.404;2023-03-02T03:11:35;95377.41;;;6.39;85.35
77702;BME280;66868;42.708;23.404;2023-03-02T03:16:30;95387.84;;;6.52;85.56
77702;BME280;66868;42.708;23.404;2023-03-02T03:19:00;95364.19;;;6.34;85.17
77702;BME280;66868;42.708;23.404;2023-03-02T03:21:27;95389.44;;;6.53;85.19
77702;BME280;66868;42.708;23.404;2023-03-02T03:23:53;95394.44;;;6.54;84.85
77702;BME280;66868;42.708;23.404;2023-03-02T03:26:18;95392.09;;;6.50;84.93
77702;BME280;66868;42.708;23.404;2023-03-02T03:28:45;95393.66;;;6.52;85.14
77702;BME280;66868;42.708;23.404;2023-03-02T03:31:10;95392.78;;;6.53;84.92
77702;BME280;66868;42.708;23.404;2023-03-02T03:33:36;95382.09;;;6.48;85.65
77702;BME280;66868;42.708;23.404;2023-03-02T03:36:01;95390.28;;;6.53;85.02
77702;BME280;66868;42.708;23.404;2023-03-02T03:38:28;95383.78;;;6.48;84.66
77702;BME280;66868;42.708;23.404;2023-03-02T03:40:53;95401.09;;;6.55;85.69
77702;BME280;66868;42.708;23.404;2023-03-02T03:43:18;95391.28;;;6.49;85.43
77702;BME280;66868;42.708;23.404;2023-03-02T03:45:44;95383.91;;;6.45;85.31
77702;BME280;66868;42.708;23.404;2023-03-02T03:48:09;95399.41;;;6.56;85.12
77702;BME280;66868;42.708;23.404;2023-03-02T03:50:35;95398.59;;;6.55;84.98
77702;BME280;66868;42.708;23.404;2023-03-02T03:53:00;95390.41;;;6.50;85.38
77702;BME280;66868;42.708;23.404;2023-03-02T03:55:26;95391.13;;;6.52;85.62
77702;BME280;66868;42.708;23.404;2023-03-02T03:57:53;95399.59;;;6.51;86.08
77702;BME280;66868;42.708;23.404;2023-03-02T04:00:19;95383.06;;;6.44;85.97
77702;BME280;66868;42.708;23.404;2023-03-02T04:02:44;95400.28;;;6.55;86.07
77702;BME280;66868;42.708;23.404;2023-03-02T04:05:10;95394.00;;;6.43;85.16
77702;BME280;66868;42.708;23.404;2023-03-02T04:07:37;95407.47;;;6.42;86.02
77702;BME280;66868;42.708;23.404;2023-03-02T04:10:06;95387.59;;;6.36;85.81
77702;BME280;66868;42.708;23.404;2023-03-02T04:12:33;95401.44;;;6.46;86.69
77702;BME280;66868;42.708;23.404;2023-03-02T04:14:59;95404.00;;;6.45;86.15
77702;BME280;66868;42.708;23.404;2023-03-02T04:17:25;95395.78;;;6.41;86.53
77702;BME280;66868;42.708;23.404;2023-03-02T04:19:51;95389.31;;;6.34;85.67
77702;BME280;66868;42.708;23.404;2023-03-02T04:22:17;95399.16;;;6.40;86.76
77702;BME280;66868;42.708;23.404;2023-03-02T04:24:44;95394.25;;;6.37;85.87
77702;BME280;66868;42.708;23.404;2023-03-02T04:27:10;95400.19;;;6.35;86.88
77702;BME280;66868;42.708;23.404;2023-03-02T04:29:36;95393.47;;;6.35;86.22
77702;BME280;66868;42.708;23.404;2023-03-02T04:32:01;95379.16;;;6.37;86.77
77702;BME280;66868;42.708;23.404;2023-03-02T04:34:26;95393.44;;;6.37;86.25
77702;BME280;66868;42.708;23.404;2023-03-02T04:36:52;95383.56;;;6.32;85.74
77702;BME280;66868;42.708;23.404;2023-03-02T04:39:18;95395.88;;;6.38;86.09
77702;BME280;66868;42.708;23.404;2023-03-02T04:41:45;95390.06;;;6.38;85.51
77702;BME280;66868;42.708;23.404;2023-03-02T04:44:10;95395.44;;;6.29;86.77
77702;BME280;66868;42.708;23.404;2023-03-02T04:46:36;95397.13;;;6.28;86.08
77702;BME280;66868;42.708;23.404;2023-03-02T04:49:02;95397.13;;;6.28;86.09
77702;BME280;66868;42.708;23.404;2023-03-02T04:51:34;95384.91;;;6.19;85.76
77702;BME280;66868;42.708;23.404;2023-03-02T04:54:03;95407.91;;;6.30;86.16
77702;BME280;66868;42.708;23.404;2023-03-02T04:56:30;95342.19;;;5.96;86.24
77702;BME280;66868;42.708;23.404;2023-03-02T04:58:56;95403.59;;;6.34;86.25
77702;BME280;66868;42.708;23.404;2023-03-02T05:01:22;95408.56;;;6.35;86.26
77702;BME280;66868;42.708;23.404;2023-03-02T05:03:48;95360.84;;;6.12;86.21
77702;BME280;66868;42.708;23.404;2023-03-02T05:06:14;95397.75;;;6.33;86.62
77702;BME280;66868;42.708;23.404;2023-03-02T05:08:39;95412.59;;;6.39;85.64
77702;BME280;66868;42.708;23.404;2023-03-02T05:11:06;95394.44;;;6.33;86.24
77702;BME280;66868;42.708;23.404;2023-03-02T05:13:32;95405.72;;;6.44;85.93
77702;BME280;66868;42.708;23.404;2023-03-02T05:15:59;95414.91;;;6.45;85.63
77702;BME280;66868;42.708;23.404;2023-03-02T05:18:25;95381.09;;;6.31;86.12
77702;BME280;66868;42.708;23.404;2023-03-02T05:20:52;95416.41;;;6.49;85.16
77702;BME280;66868;42.708;23.404;2023-03-02T05:23:21;95413.69;;;6.55;85.44
77702;BME280;66868;42.708;23.404;2023-03-02T05:25:54;95406.47;;;6.46;85.14
77702;BME280;66868;42.708;23.404;2023-03-02T05:28:22;95416.94;;;6.57;85.90
77702;BME280;66868;42.708;23.404;2023-03-02T05:30:48;95418.53;;;6.60;85.46
77702;BME280;66868;42.708;23.404;2023-03-02T05:33:14;95393.66;;;6.52;85.92
77702;BME280;66868;42.708;23.404;2023-03-02T05:35:40;95397.06;;;6.51;85.85
77702;BME280;66868;42.708;23.404;2023-03-02T05:38:06;95405.13;;;6.59;85.46
77702;BME280;66868;42.708;23.404;2023-03-02T05:40:32;95417.31;;;6.70;85.97
77702;BME280;66868;42.708;23.404;2023-03-02T05:42:57;95419.66;;;6.75;85.63
77702;BME280;66868;42.708;23.404;2023-03-02T05:45:32;95397.88;;;6.74;84.91
77702;BME280;66868;42.708;23.404;2023-03-02T05:47:57;95426.56;;;6.90;84.91
77702;BME280;66868;42.708;23.404;2023-03-02T05:50:23;95417.41;;;6.89;84.25
77702;BME280;66868;42.708;23.404;2023-03-02T05:52:49;95432.25;;;6.95;84.23
77702;BME280;66868;42.708;23.404;2023-03-02T05:55:41;95423.59;;;7.02;83.92
77702;BME280;66868;42.708;23.404;2023-03-02T05:58:11;95429.25;;;7.07;83.84
77702;BME280;66868;42.708;23.404;2023-03-02T06:00:36;95414.44;;;6.99;84.09
77702;BME280;66868;42.708;23.404;2023-03-02T06:03:02;95433.03;;;7.17;83.57
77702;BME280;66868;42.708;23.404;2023-03-02T06:05:27;95433.78;;;7.19;83.23
77702;BME280;66868;42.708;23.404;2023-03-02T06:07:52;95427.13;;;7.18;82.71
77702;BME280;66868;42.708;23.404;2023-03-02T06:10:19;95430.03;;;7.29;83.12
77702;BME280;66868;42.708;23.404;2023-03-02T06:12:44;95426.00;;;7.25;82.97
77702;BME280;66868;42.708;23.404;2023-03-02T06:15:10;95420.84;;;7.28;83.04
77702;BME280;66868;42.708;23.404;2023-03-02T06:17:35;95442.13;;;7.41;82.60
77702;BME280;66868;42.708;23.404;2023-03-02T06:20:01;95446.28;;;7.42;82.74
77702;BME280;66868;42.708;23.404;2023-03-02T06:22:29;95432.28;;;7.35;82.73
77702;BME280;66868;42.708;23.404;2023-03-02T06:24:54;95445.50;;;7.40;83.33
77702;BME280;66868;42.708;23.404;2023-03-02T06:27:20;95444.34;;;7.49;83.74
77702;BME280;66868;42.708;23.404;2023-03-02T06:29:45;95445.72;;;7.56;82.84
77702;BME280;66868;42.708;23.404;2023-03-02T06:32:10;95454.34;;;7.71;82.52
77702;BME280;66868;42.708;23.404;2023-03-02T06:34:36;95453.88;;;7.81;83.11
77702;BME280;66868;42.708;23.404;2023-03-02T06:37:01;95456.28;;;7.84;82.71
77702;BME280;66868;42.708;23.404;2023-03-02T06:39:27;95455.06;;;7.93;82.06
77702;BME280;66868;42.708;23.404;2023-03-02T06:41:52;95463.00;;;8.04;81.83
77702;BME280;66868;42.708;23.404;2023-03-02T06:44:17;95381.50;;;7.65;81.35
77702;BME280;66868;42.708;23.404;2023-03-02T06:46:43;95462.03;;;8.25;80.38
77702;BME280;66868;42.708;23.404;2023-03-02T06:49:09;95440.22;;;8.24;80.43
77702;BME280;66868;42.708;23.404;2023-03-02T06:51:35;95456.06;;;8.47;79.95
77702;BME280;66868;42.708;23.404;2023-03-02T06:54:01;95450.91;;;8.50;80.22
77702;BME280;66868;42.708;23.404;2023-03-02T06:56:27;95457.72;;;8.66;79.62
77702;BME280;66868;42.708;23.404;2023-03-02T06:58:52;95465.00;;;8.72;78.96
77702;BME280;66868;42.708;23.404;2023-03-02T07:01:18;95465.22;;;8.68;78.55
77702;BME280;66868;42.708;23.404;2023-03-02T07:03:44;95463.41;;;8.70;78.46
77702;BME280;66868;42.708;23.404;2023-03-02T07:06:13;95453.84;;;8.59;77.91
77702;BME280;66868;42.708;23.404;2023-03-02T07:08:39;95460.28;;;8.65;77.79
77702;BME280;66868;42.708;23.404;2023-03-02T07:11:06;95451.59;;;8.53;78.13
77702;BME280;66868;42.708;23.404;2023-03-02T07:13:31;95461.72;;;8.52;78.22
77702;BME280;66868;42.708;23.404;2023-03-02T07:15:57;95463.72;;;8.45;78.70
77702;BME280;66868;42.708;23.404;2023-03-02T07:18:22;95473.00;;;8.45;78.45
77702;BME280;66868;42.708;23.404;2023-03-02T07:20:47;95465.56;;;8.41;78.85
77702;BME280;66868;42.708;23.404;2023-03-02T07:23:13;95461.66;;;8.34;78.61
77702;BME280;66868;42.708;23.404;2023-03-02T07:25:38;95452.22;;;8.19;79.32
77702;BME280;66868;42.708;23.404;2023-03-02T07:28:03;95444.81;;;8.16;79.19
77702;BME280;66868;42.708;23.404;2023-03-02T07:30:29;95458.75;;;8.23;79.63
77702;BME280;66868;42.708;23.404;2023-03-02T07:32:54;95458.38;;;8.32;79.35
77702;BME280;66868;42.708;23.404;2023-03-02T07:35:20;95462.28;;;8.39;79.98
77702;BME280;66868;42.708;23.404;2023-03-02T07:37:45;95461.66;;;8.53;80.16
77702;BME280;66868;42.708;23.404;2023-03-02T07:40:12;95457.19;;;8.60;79.50
77702;BME280;66868;42.708;23.404;2023-03-02T07:42:37;95467.47;;;8.74;79.34
77702;BME280;66868;42.708;23.404;2023-03-02T07:45:04;95463.00;;;8.79;79.01
77702;BME280;66868;42.708;23.404;2023-03-02T07:47:31;95461.78;;;8.88;78.86
77702;BME280;66868;42.708;23.404;2023-03-02T07:49:59;95423.47;;;8.61;78.47
77702;BME280;66868;42.708;23.404;2023-03-02T07:52:24;95465.72;;;8.93;77.92
77702;BME280;66868;42.708;23.404;2023-03-02T07:54:50;95466.91;;;9.03;77.87
77702;BME280;66868;42.708;23.404;2023-03-02T07:57:15;95443.81;;;8.94;77.69
77702;BME280;66868;42.708;23.404;2023-03-02T07:59:42;95467.19;;;8.97;77.10
77702;BME280;66868;42.708;23.404;2023-03-02T08:02:11;95466.47;;;8.95;77.78
77702;BME280;66868;42.708;23.404;2023-03-02T08:04:38;95462.44;;;8.91;77.65
77702;BME280;66868;42.708;23.404;2023-03-02T08:07:03;95463.69;;;8.82;77.21
77702;BME280;66868;42.708;23.404;2023-03-02T08:09:29;95458.78;;;8.79;76.99
77702;BME280;66868;42.708;23.404;2023-03-02T08:11:54;95468.66;;;8.84;77.28
77702;BME280;66868;42.708;23.404;2023-03-02T08:14:19;95469.41;;;8.86;76.73
77702;BME280;66868;42.708;23.404;2023-03-02T08:16:45;95455.38;;;8.80;77.13
77702;BME280;66868;42.708;23.404;2023-03-02T08:19:10;95457.69;;;8.85;77.37
77702;BME280;66868;42.708;23.404;2023-03-02T08:21:36;95455.59;;;8.93;77.25
77702;BME280;66868;42.708;23.404;2023-03-02T08:24:04;95451.47;;;8.92;77.46
77702;BME280;66868;42.708;23.404;2023-03-02T08:26:38;95454.28;;;9.03;76.92
77702;BME280;66868;42.708;23.404;2023-03-02T08:29:04;95456.69;;;9.06;76.79
77702;BME280;66868;42.708;23.404;2023-03-02T08:31:30;95457.44;;;9.08;75.99
77702;BME280;66868;42.708;23.404;2023-03-02T08:33:55;95451.66;;;9.06;76.05
77702;BME280;66868;42.708;23.404;2023-03-02T08:36:21;95449.13;;;9.06;75.95
77702;BME280;66868;42.708;23.404;2023-03-02T08:38:47;95423.75;;;8.91;76.30
77702;BME280;66868;42.708;23.404;2023-03-02T08:41:15;95447.03;;;9.14;76.55
77702;BME280;66868;42.708;23.404;2023-03-02T08:43:41;95454.31;;;9.20;76.36
77702;BME280;66868;42.708;23.404;2023-03-02T08:46:07;95450.22;;;9.18;75.96
77702;BME280;66868;42.708;23.404;2023-03-02T08:48:33;95433.66;;;9.29;76.09
77702;BME280;66868;42.708;23.404;2023-03-02T08:51:02;95449.41;;;9.17;76.17
77702;BME280;66868;42.708;23.404;2023-03-02T08:53:30;95453.81;;;9.14;75.97
77702;BME280;66868;42.708;23.404;2023-03-02T08:55:56;95452.97;;;9.30;75.64
77702;BME280;66868;42.708;23.404;2023-03-02T08:58:21;95451.94;;;9.35;75.76
77702;BME280;66868;42.708;23.404;2023-03-02T09:00:47;95450.53;;;9.46;75.23
77702;BME280;66868;42.708;23.404;2023-03-02T09:03:13;95451.13;;;9.51;75.22
77702;BME280;66868;42.708;23.404;2023-03-02T09:05:39;95435.22;;;9.49;75.99
77702;BME280;66868;42.708;23.404;2023-03-02T09:08:05;95449.28;;;9.55;75.25
77702;BME280;66868;42.708;23.404;2023-03-02T09:10:31;95424.97;;;9.52;75.31
77702;BME280;66868;42.708;23.404;2023-03-02T09:12:57;95435.28;;;9.65;74.23
77702;BME280;66868;42.708;23.404;2023-03-02T09:15:22;95442.00;;;9.66;74.85
77702;BME280;66868;42.708;23.404;2023-03-02T09:17:47;95441.69;;;9.55;73.47
77702;BME280;66868;42.708;23.404;2023-03-02T09:20:13;95441.16;;;9.65;73.72
77702;BME280;66868;42.708;23.404;2023-03-02T09:22:39;95442.91;;;9.48;73.53
77702;BME280;66868;42.708;23.404;2023-03-02T09:25:05;95440.22;;;9.51;73.81
77702;BME280;66868;42.708;23.404;2023-03-02T09:27:31;95446.44;;;9.26;73.55
77702;BME280;66868;42.708;23.404;2023-03-02T09:29:57;95420.47;;;9.24;74.05
77702;BME280;66868;42.708;23.404;2023-03-02T09:32:22;95429.66;;;9.25;73.91
77702;BME280;66868;42.708;23.404;2023-03-02T09:34:48;95429.59;;;9.27;74.88
77702;BME280;66868;42.708;23.404;2023-03-02T09:37:14;95442.75;;;9.34;74.47
77702;BME280;66868;42.708;23.404;2023-03-02T09:39:39;95431.88;;;9.31;74.55
77702;BME280;66868;42.708;23.404;2023-03-02T09:47:27;95440.22;;;9.51;75.67
77702;BME280;66868;42.708;23.404;2023-03-02T09:50:20;95438.06;;;9.43;75.06
77702;BME280;66868;42.708;23.404;2023-03-02T09:55:57;95437.97;;;9.10;74.79
77702;BME280;66868;42.708;23.404;2023-03-02T09:58:30;95434.84;;;9.05;75.16
77702;BME280;66868;42.708;23.404;2023-03-02T10:01:00;95425.13;;;9.15;75.00
77702;BME280;66868;42.708;23.404;2023-03-02T10:03:35;95434.41;;;9.14;74.73
77702;BME280;66868;42.708;23.404;2023-03-02T10:06:04;95429.97;;;9.19;74.33
77702;BME280;66868;42.708;23.404;2023-03-02T10:08:34;95426.53;;;9.03;74.32
77702;BME280;66868;42.708;23.404;2023-03-02T10:13:40;95423.56;;;8.95;75.13
77702;BME280;66868;42.708;23.404;2023-03-02T10:19:35;95428.81;;;8.91;74.49
77702;BME280;66868;42.708;23.404;2023-03-02T10:22:14;95420.88;;;8.98;75.23
77702;BME280;66868;42.708;23.404;2023-03-02T10:24:53;95414.16;;;8.80;74.37
77702;BME280;66868;42.708;23.404;2023-03-02T10:27:33;95428.81;;;9.08;74.41
77702;BME280;66868;42.708;23.404;2023-03-02T10:32:32;95424.38;;;9.13;73.82
77702;BME280;66868;42.708;23.404;2023-03-02T10:35:01;95429.59;;;9.10;74.12
77702;BME280;66868;42.708;23.404;2023-03-02T10:37:35;95427.19;;;9.07;73.68
77702;BME280;66868;42.708;23.404;2023-03-02T10:40:00;95422.28;;;9.04;74.21
77702;BME280;66868;42.708;23.404;2023-03-02T10:42:33;95349.56;;;8.59;74.07
77702;BME280;66868;42.708;23.404;2023-03-02T10:45:27;95417.41;;;9.01;74.58
77702;BME280;66868;42.708;23.404;2023-03-02T10:48:00;95413.00;;;9.04;74.48
77702;BME280;66868;42.708;23.404;2023-03-02T10:50:26;95392.38;;;8.96;74.66
77702;BME280;66868;42.708;23.404;2023-03-02T10:52:54;95412.13;;;9.22;74.53
77702;BME280;66868;42.708;23.404;2023-03-02T10:55:20;95389.78;;;9.15;73.96
77702;BME280;66868;42.708;23.404;2023-03-02T10:57:58;95391.59;;;9.11;73.95
77702;BME280;66868;42.708;23.404;2023-03-02T11:00:27;95390.72;;;8.95;74.13
77702;BME280;66868;42.708;23.404;2023-03-02T11:02:59;95395.78;;;9.12;74.78
77702;BME280;66868;42.708;23.404;2023-03-02T11:05:34;95392.22;;;8.99;75.83
77702;BME280;66868;42.708;23.404;2023-03-02T11:10:29;95395.63;;;9.32;75.26
77702;BME280;66868;42.708;23.404;2023-03-02T11:12:57;95397.03;;;9.55;74.88
77702;BME280;66868;42.708;23.404;2023-03-02T11:18:03;95396.75;;;9.77;74.41
77702;BME280;66868;42.708;23.404;2023-03-02T11:20:36;95367.00;;;9.82;73.53
77702;BME280;66868;42.708;23.404;2023-03-02T11:23:29;95391.34;;;10.00;73.72
77702;BME280;66868;42.708;23.404;2023-03-02T11:26:01;95386.94;;;10.04;73.31
77702;BME280;66868;42.708;23.404;2023-03-02T11:31:22;95382.44;;;10.26;71.94
77702;BME280;66868;42.708;23.404;2023-03-02T11:42:32;95372.53;;;10.53;70.63
77702;BME280;66868;42.708;23.404;2023-03-02T11:45:13;95347.47;;;10.33;71.05
77702;BME280;66868;42.708;23.404;2023-03-02T11:50:52;95357.66;;;10.47;69.62
77702;BME280;66868;42.708;23.404;2023-03-02T11:53:18;95368.69;;;10.46;70.20
77702;BME280;66868;42.708;23.404;2023-03-02T11:55:47;95358.88;;;10.55;70.82
77702;BME280;66868;42.708;23.404;2023-03-02T11:58:19;95354.81;;;10.53;70.42
77702;BME280;66868;42.708;23.404;2023-03-02T12:00:46;95360.09;;;10.64;70.06
77702;BME280;66868;42.708;23.404;2023-03-02T12:05:42;95370.47;;;10.75;69.49
77702;BME280;66868;42.708;23.404;2023-03-02T12:10:41;95359.69;;;10.56;69.49
77702;BME280;66868;42.708;23.404;2023-03-02T12:13:29;95379.06;;;10.57;69.24
77702;BME280;66868;42.708;23.404;2023-03-02T12:15:59;95372.84;;;10.47;69.04
77702;BME280;66868;42.708;23.404;2023-03-02T12:18:30;95369.03;;;10.40;69.27
77702;BME280;66868;42.708;23.404;2023-03-02T12:21:01;95358.25;;;10.21;69.33
77702;BME280;66868;42.708;23.404;2023-03-02T12:23:27;95373.34;;;10.22;69.65
77702;BME280;66868;42.708;23.404;2023-03-02T12:28:38;95364.97;;;10.04;70.73
77702;BME280;66868;42.708;23.404;2023-03-02T12:31:08;95372.56;;;10.04;69.63
77702;BME280;66868;42.708;23.404;2023-03-02T12:33:40;95366.78;;;10.02;70.06
77702;BME280;66868;42.708;23.404;2023-03-02T12:36:15;95348.00;;;9.91;70.32
77702;BME280;66868;42.708;23.404;2023-03-02T12:38:49;95360.84;;;10.03;70.76
77702;BME280;66868;42.708;23.404;2023-03-02T12:41:32;95323.31;;;9.80;71.15
77702;BME280;66868;42.708;23.404;2023-03-02T12:44:33;95360.97;;;10.00;71.01
77702;BME280;66868;42.708;23.404;2023-03-02T12:47:13;95346.47;;;9.88;70.69
77702;BME280;66868;42.708;23.404;2023-03-02T12:55:04;95355.69;;;9.89;71.13
77702;BME280;66868;42.708;23.404;2023-03-02T12:57:29;95327.34;;;9.67;71.78
77702;BME280;66868;42.708;23.404;2023-03-02T12:59:59;95360.00;;;9.87;71.51
77702;BME280;66868;42.708;23.404;2023-03-02T13:02:33;95344.66;;;9.74;71.43
77702;BME280;66868;42.708;23.404;2023-03-02T13:05:04;95352.81;;;9.95;71.14
77702;BME280;66868;42.708;23.404;2023-03-02T13:10:25;95338.59;;;10.26;70.77
77702;BME280;66868;42.708;23.404;2023-03-02T13:12:52;95330.16;;;10.41;70.71
77702;BME280;66868;42.708;23.404;2023-03-02T13:15:18;95328.38;;;10.43;70.79
77702;BME280;66868;42.708;23.404;2023-03-02T13:17:44;95337.34;;;10.48;72.05
77702;BME280;66868;42.708;23.404;2023-03-02T13:23:16;95337.69;;;10.42;72.48
77702;BME280;66868;42.708;23.404;2023-03-02T13:28:29;95321.53;;;10.29;73.17
77702;BME280;66868;42.708;23.404;2023-03-02T13:31:18;95326.41;;;10.32;72.98
77702;BME280;66868;42.708;23.404;2023-03-02T13:33:46;95316.66;;;10.26;73.19
77702;BME280;66868;42.708;23.404;2023-03-02T13:36:19;95296.47;;;9.93;73.54
77702;BME280;66868;42.708;23.404;2023-03-02T13:38:50;95313.34;;;10.08;74.28
77702;BME280;66868;42.708;23.404;2023-03-02T13:41:30;95296.53;;;9.92;74.10
77702;BME280;66868;42.708;23.404;2023-03-02T13:43:57;95274.69;;;9.75;73.62
77702;BME280;66868;42.708;23.404;2023-03-02T13:46:26;95298.16;;;9.77;74.56
77702;BME280;66868;42.708;23.404;2023-03-02T13:48:54;95282.75;;;9.66;75.20
77702;BME280;66868;42.708;23.404;2023-03-02T13:51:20;95284.34;;;9.67;74.94
77702;BME280;66868;42.708;23.404;2023-03-02T13:53:55;95300.25;;;9.53;76.00
77702;BME280;66868;42.708;23.404;2023-03-02T13:56:25;95288.47;;;9.37;76.07
77702;BME280;66868;42.708;23.404;2023-03-02T13:58:52;95295.19;;;9.38;75.87
77702;BME280;66868;42.708;23.404;2023-03-02T14:01:18;95308.03;;;9.33;76.32
77702;BME280;66868;42.708;23.404;2023-03-02T14:03:43;95299.06;;;9.27;75.76
77702;BME280;66868;42.708;23.404;2023-03-02T14:06:09;95308.03;;;9.33;75.67
77702;BME280;66868;42.708;23.404;2023-03-02T14:08:34;95313.56;;;9.24;75.75
77702;BME280;66868;42.708;23.404;2023-03-02T14:11:01;95300.22;;;9.38;75.87
77702;BME280;66868;42.708;23.404;2023-03-02T14:13:40;95284.72;;;9.44;74.92